sensor_id;sensor_type;location;lat;lon;timestamp;temperature;humidity
18581;DHT22;9420;50.876;7.012;2023-07-29T00:02:21;19.20;92.19
18581;DHT22;9420;50.876;7.012;2023-07-29T00:04:48;19.26;92.10
18581;DHT22;9420;50.876;7.012;2023-07-29T00:07:15;19.33;91.62
18581;DHT22;9420;50.876;7.012;2023-07-29T00:09:41;19.38;91.50
18581;DHT22;9420;50.876;7.012;2023-07-29T00:12:08;19.40;91.70
18581;DHT22;9420;50.876;7.012;2023-07-29T00:14:36;19.29;92.33
18581;DHT22;9420;50.876;7.012;2023-07-29T00:17:03;19.34;92.44
18581;DHT22;9420;50.876;7.012;2023-07-29T00:19:30;19.40;92.14
18581;DHT22;9420;50.876;7.012;2023-07-29T00:21:57;19.27;92.00
18581;DHT22;9420;50.876;7.012;2023-07-29T00:24:24;19.36;91.91
18581;DHT22;9420;50.876;7.012;2023-07-29T00:26:51;19.34;93.41
18581;DHT22;9420;50.876;7.012;2023-07-29T00:29:17;19.33;94.31
18581;DHT22;9420;50.876;7.012;2023-07-29T00:31:46;19.41;94.52
18581;DHT22;9420;50.876;7.012;2023-07-29T00:34:12;19.36;94.42
18581;DHT22;9420;50.876;7.012;2023-07-29T00:36:42;19.22;94.36
18581;DHT22;9420;50.876;7.012;2023-07-29T00:39:09;19.16;94.92
18581;DHT22;9420;50.876;7.012;2023-07-29T00:41:36;19.12;95.01
18581;DHT22;9420;50.876;7.012;2023-07-29T00:44:03;19.16;94.60
18581;DHT22;9420;50.876;7.012;2023-07-29T00:46:29;19.24;94.83
18581;DHT22;9420;50.876;7.012;2023-07-29T00:48:57;19.26;94.57
18581;DHT22;9420;50.876;7.012;2023-07-29T00:51:24;19.26;94.99
18581;DHT22;9420;50.876;7.012;2023-07-29T00:53:51;19.22;94.71
18581;DHT22;9420;50.876;7.012;2023-07-29T00:56:18;19.27;94.54
18581;DHT22;9420;50.876;7.012;2023-07-29T00:58:44;19.26;94.30
18581;DHT22;9420;50.876;7.012;2023-07-29T01:01:12;19.24;94.55
18581;DHT22;9420;50.876;7.012;2023-07-29T01:03:38;19.31;94.42
18581;DHT22;9420;50.876;7.012;2023-07-29T01:06:13;19.33;94.18
18581;DHT22;9420;50.876;7.012;2023-07-29T01:08:47;19.29;94.38
18581;DHT22;9420;50.876;7.012;2023-07-29T01:11:27;19.23;94.25
18581;DHT22;9420;50.876;7.012;2023-07-29T01:14:00;19.26;94.74
18581;DHT22;9420;50.876;7.012;2023-07-29T01:16:31;19.19;94.82
18581;DHT22;9420;50.876;7.012;2023-07-29T01:19:05;19.13;95.19
18581;DHT22;9420;50.876;7.012;2023-07-29T01:21:35;19.16;95.16
18581;DHT22;9420;50.876;7.012;2023-07-29T01:24:03;19.10;94.80
18581;DHT22;9420;50.876;7.012;2023-07-29T01:26:30;19.03;95.31
18581;DHT22;9420;50.876;7.012;2023-07-29T01:28:57;19.03;94.92
18581;DHT22;9420;50.876;7.012;2023-07-29T01:31:30;19.10;94.89
18581;DHT22;9420;50.876;7.012;2023-07-29T01:34:13;19.15;94.94
18581;DHT22;9420;50.876;7.012;2023-07-29T01:36:43;19.15;94.91
18581;DHT22;9420;50.876;7.012;2023-07-29T01:39:13;19.13;94.65
18581;DHT22;9420;50.876;7.012;2023-07-29T01:41:41;19.10;95.24
18581;DHT22;9420;50.876;7.012;2023-07-29T01:44:09;19.13;95.17
18581;DHT22;9420;50.876;7.012;2023-07-29T01:46:37;19.16;94.56
18581;DHT22;9420;50.876;7.012;2023-07-29T01:49:04;19.08;95.08
18581;DHT22;9420;50.876;7.012;2023-07-29T01:51:30;19.06;94.70
18581;DHT22;9420;50.876;7.012;2023-07-29T01:53:57;19.00;95.11
18581;DHT22;9420;50.876;7.012;2023-07-29T01:56:26;19.00;95.25
18581;DHT22;9420;50.876;7.012;2023-07-29T01:58:53;19.02;94.93
18581;DHT22;9420;50.876;7.012;2023-07-29T02:01:19;19.06;94.73
18581;DHT22;9420;50.876;7.012;2023-07-29T02:03:46;19.10;95.20
18581;DHT22;9420;50.876;7.012;2023-07-29T02:06:18;18.96;94.72
18581;DHT22;9420;50.876;7.012;2023-07-29T02:08:45;18.95;95.19
18581;DHT22;9420;50.876;7.012;2023-07-29T02:11:12;18.99;95.13
18581;DHT22;9420;50.876;7.012;2023-07-29T02:13:40;18.98;94.96
18581;DHT22;9420;50.876;7.012;2023-07-29T02:16:06;18.91;95.42
18581;DHT22;9420;50.876;7.012;2023-07-29T02:18:33;18.95;95.70
18581;DHT22;9420;50.876;7.012;2023-07-29T02:20:59;19.02;96.05
18581;DHT22;9420;50.876;7.012;2023-07-29T02:23:26;18.87;95.65
18581;DHT22;9420;50.876;7.012;2023-07-29T02:25:52;18.92;95.37
18581;DHT22;9420;50.876;7.012;2023-07-29T02:28:19;18.85;95.13
18581;DHT22;9420;50.876;7.012;2023-07-29T02:31:14;18.81;94.94
18581;DHT22;9420;50.876;7.012;2023-07-29T02:33:40;18.85;95.49
18581;DHT22;9420;50.876;7.012;2023-07-29T02:36:07;18.82;95.77
18581;DHT22;9420;50.876;7.012;2023-07-29T02:38:34;18.85;95.70
18581;DHT22;9420;50.876;7.012;2023-07-29T02:41:00;18.78;94.61
18581;DHT22;9420;50.876;7.012;2023-07-29T02:43:27;18.85;95.67
18581;DHT22;9420;50.876;7.012;2023-07-29T02:45:53;18.81;96.05
18581;DHT22;9420;50.876;7.012;2023-07-29T02:48:21;18.61;95.97
18581;DHT22;9420;50.876;7.012;2023-07-29T02:50:48;18.71;96.35
18581;DHT22;9420;50.876;7.012;2023-07-29T02:53:15;18.73;96.23
18581;DHT22;9420;50.876;7.012;2023-07-29T02:55:41;18.75;96.04
18581;DHT22;9420;50.876;7.012;2023-07-29T02:58:08;18.79;96.49
18581;DHT22;9420;50.876;7.012;2023-07-29T03:00:35;18.87;96.13
18581;DHT22;9420;50.876;7.012;2023-07-29T03:03:02;18.76;96.14
18581;DHT22;9420;50.876;7.012;2023-07-29T03:05:30;18.73;95.97
18581;DHT22;9420;50.876;7.012;2023-07-29T03:07:57;18.75;96.17
18581;DHT22;9420;50.876;7.012;2023-07-29T03:10:24;18.71;95.97
18581;DHT22;9420;50.876;7.012;2023-07-29T03:12:53;18.85;95.28
18581;DHT22;9420;50.876;7.012;2023-07-29T03:15:23;18.88;94.62
18581;DHT22;9420;50.876;7.012;2023-07-29T03:17:50;18.91;95.25
18581;DHT22;9420;50.876;7.012;2023-07-29T03:20:16;18.92;94.53
18581;DHT22;9420;50.876;7.012;2023-07-29T03:22:45;18.88;94.93
18581;DHT22;9420;50.876;7.012;2023-07-29T03:25:13;18.85;94.85
18581;DHT22;9420;50.876;7.012;2023-07-29T03:27:39;18.84;95.42
18581;DHT22;9420;50.876;7.012;2023-07-29T03:30:06;18.89;94.67
18581;DHT22;9420;50.876;7.012;2023-07-29T03:32:33;18.81;95.18
18581;DHT22;9420;50.876;7.012;2023-07-29T03:35:00;18.89;94.72
18581;DHT22;9420;50.876;7.012;2023-07-29T03:37:26;18.87;94.04
18581;DHT22;9420;50.876;7.012;2023-07-29T03:39:54;18.88;93.93
18581;DHT22;9420;50.876;7.012;2023-07-29T03:42:21;18.88;94.04
18581;DHT22;9420;50.876;7.012;2023-07-29T03:44:48;18.84;93.82
18581;DHT22;9420;50.876;7.012;2023-07-29T03:47:14;18.81;94.00
18581;DHT22;9420;50.876;7.012;2023-07-29T03:49:41;18.75;94.13
18581;DHT22;9420;50.876;7.012;2023-07-29T03:52:07;18.82;94.04
18581;DHT22;9420;50.876;7.012;2023-07-29T03:54:34;18.76;93.84
18581;DHT22;9420;50.876;7.012;2023-07-29T03:57:03;18.75;93.92
18581;DHT22;9420;50.876;7.012;2023-07-29T03:59:30;18.69;94.25
18581;DHT22;9420;50.876;7.012;2023-07-29T04:01:56;18.64;94.25
18581;DHT22;9420;50.876;7.012;2023-07-29T04:04:23;18.54;95.06
18581;DHT22;9420;50.876;7.012;2023-07-29T04:06:49;18.57;95.01
18581;DHT22;9420;50.876;7.012;2023-07-29T04:09:16;18.55;95.03
18581;DHT22;9420;50.876;7.012;2023-07-29T04:11:43;18.61;94.42
18581;DHT22;9420;50.876;7.012;2023-07-29T04:14:11;18.62;94.43
18581;DHT22;9420;50.876;7.012;2023-07-29T04:16:37;18.58;94.29
18581;DHT22;9420;50.876;7.012;2023-07-29T04:19:04;18.59;94.19
18581;DHT22;9420;50.876;7.012;2023-07-29T04:21:31;18.58;94.16
18581;DHT22;9420;50.876;7.012;2023-07-29T04:23:58;18.52;94.30
18581;DHT22;9420;50.876;7.012;2023-07-29T04:26:24;18.50;94.50
18581;DHT22;9420;50.876;7.012;2023-07-29T04:28:51;18.48;94.67
18581;DHT22;9420;50.876;7.012;2023-07-29T04:31:19;18.44;94.73
18581;DHT22;9420;50.876;7.012;2023-07-29T04:33:45;18.50;94.50
18581;DHT22;9420;50.876;7.012;2023-07-29T04:36:12;18.47;94.71
18581;DHT22;9420;50.876;7.012;2023-07-29T04:38:38;18.59;94.01
18581;DHT22;9420;50.876;7.012;2023-07-29T04:41:05;18.50;94.17
18581;DHT22;9420;50.876;7.012;2023-07-29T04:43:34;18.51;94.23
18581;DHT22;9420;50.876;7.012;2023-07-29T04:46:00;18.54;93.58
18581;DHT22;9420;50.876;7.012;2023-07-29T04:48:28;18.52;93.80
18581;DHT22;9420;50.876;7.012;2023-07-29T04:50:55;18.52;93.99
18581;DHT22;9420;50.876;7.012;2023-07-29T04:53:21;18.52;94.20
18581;DHT22;9420;50.876;7.012;2023-07-29T04:55:48;18.59;93.47
18581;DHT22;9420;50.876;7.012;2023-07-29T04:58:15;18.64;93.00
18581;DHT22;9420;50.876;7.012;2023-07-29T05:00:42;18.57;93.38
18581;DHT22;9420;50.876;7.012;2023-07-29T05:03:09;18.54;93.36
18581;DHT22;9420;50.876;7.012;2023-07-29T05:05:37;18.52;93.53
18581;DHT22;9420;50.876;7.012;2023-07-29T05:08:03;18.57;93.96
18581;DHT22;9420;50.876;7.012;2023-07-29T05:10:30;18.48;94.46
18581;DHT22;9420;50.876;7.012;2023-07-29T05:12:57;18.54;93.38
18581;DHT22;9420;50.876;7.012;2023-07-29T05:15:23;18.57;94.19
18581;DHT22;9420;50.876;7.012;2023-07-29T05:17:50;18.62;93.67
18581;DHT22;9420;50.876;7.012;2023-07-29T05:20:17;18.68;93.06
18581;DHT22;9420;50.876;7.012;2023-07-29T05:22:45;18.79;92.66
18581;DHT22;9420;50.876;7.012;2023-07-29T05:25:12;18.73;94.08
18581;DHT22;9420;50.876;7.012;2023-07-29T05:27:38;18.81;94.51
18581;DHT22;9420;50.876;7.012;2023-07-29T05:30:07;18.72;94.91
18581;DHT22;9420;50.876;7.012;2023-07-29T05:32:34;18.72;93.02
18581;DHT22;9420;50.876;7.012;2023-07-29T05:35:00;18.69;93.09
18581;DHT22;9420;50.876;7.012;2023-07-29T05:37:27;18.65;92.93
18581;DHT22;9420;50.876;7.012;2023-07-29T05:39:55;18.65;92.88
18581;DHT22;9420;50.876;7.012;2023-07-29T05:42:22;18.69;92.84
18581;DHT22;9420;50.876;7.012;2023-07-29T05:44:49;18.68;92.58
18581;DHT22;9420;50.876;7.012;2023-07-29T05:47:15;18.75;92.40
18581;DHT22;9420;50.876;7.012;2023-07-29T05:49:42;18.76;92.46
18581;DHT22;9420;50.876;7.012;2023-07-29T05:52:09;18.85;91.94
18581;DHT22;9420;50.876;7.012;2023-07-29T05:54:35;18.79;93.24
18581;DHT22;9420;50.876;7.012;2023-07-29T05:57:04;18.89;91.99
18581;DHT22;9420;50.876;7.012;2023-07-29T05:59:31;18.81;92.29
18581;DHT22;9420;50.876;7.012;2023-07-29T06:01:57;18.91;93.06
18581;DHT22;9420;50.876;7.012;2023-07-29T06:04:24;18.96;91.93
18581;DHT22;9420;50.876;7.012;2023-07-29T06:06:50;18.92;92.96
18581;DHT22;9420;50.876;7.012;2023-07-29T06:09:17;18.91;93.58
18581;DHT22;9420;50.876;7.012;2023-07-29T06:11:44;18.89;92.97
18581;DHT22;9420;50.876;7.012;2023-07-29T06:14:14;18.81;92.54
18581;DHT22;9420;50.876;7.012;2023-07-29T06:16:41;18.81;93.02
18581;DHT22;9420;50.876;7.012;2023-07-29T06:19:07;18.89;92.64
18581;DHT22;9420;50.876;7.012;2023-07-29T06:21:35;19.00;92.32
18581;DHT22;9420;50.876;7.012;2023-07-29T06:24:01;18.98;92.47
18581;DHT22;9420;50.876;7.012;2023-07-29T06:26:28;19.13;92.80
18581;DHT22;9420;50.876;7.012;2023-07-29T06:28:55;19.17;91.29
18581;DHT22;9420;50.876;7.012;2023-07-29T06:31:23;19.16;91.75
18581;DHT22;9420;50.876;7.012;2023-07-29T06:33:50;19.13;91.99
18581;DHT22;9420;50.876;7.012;2023-07-29T06:36:16;19.12;92.34
18581;DHT22;9420;50.876;7.012;2023-07-29T06:38:43;19.08;91.37
18581;DHT22;9420;50.876;7.012;2023-07-29T06:41:10;19.08;92.02
18581;DHT22;9420;50.876;7.012;2023-07-29T06:43:37;19.10;91.40
18581;DHT22;9420;50.876;7.012;2023-07-29T06:46:04;18.99;90.91
18581;DHT22;9420;50.876;7.012;2023-07-29T06:48:32;18.98;91.05
18581;DHT22;9420;50.876;7.012;2023-07-29T06:50:58;19.05;91.21
18581;DHT22;9420;50.876;7.012;2023-07-29T06:53:27;19.10;90.98
18581;DHT22;9420;50.876;7.012;2023-07-29T06:55:54;19.22;90.47
18581;DHT22;9420;50.876;7.012;2023-07-29T06:58:21;19.17;92.58
18581;DHT22;9420;50.876;7.012;2023-07-29T07:00:48;19.29;91.18
18581;DHT22;9420;50.876;7.012;2023-07-29T07:03:14;19.40;90.10
18581;DHT22;9420;50.876;7.012;2023-07-29T07:05:42;19.68;90.18
18581;DHT22;9420;50.876;7.012;2023-07-29T07:08:09;19.70;88.91
18581;DHT22;9420;50.876;7.012;2023-07-29T07:10:35;19.70;87.78
18581;DHT22;9420;50.876;7.012;2023-07-29T07:13:02;19.75;90.50
18581;DHT22;9420;50.876;7.012;2023-07-29T07:15:29;19.77;89.33
18581;DHT22;9420;50.876;7.012;2023-07-29T07:17:55;19.73;88.30
18581;DHT22;9420;50.876;7.012;2023-07-29T07:20:22;19.46;88.39
18581;DHT22;9420;50.876;7.012;2023-07-29T07:22:50;19.60;90.27
18581;DHT22;9420;50.876;7.012;2023-07-29T07:25:18;19.46;90.63
18581;DHT22;9420;50.876;7.012;2023-07-29T07:27:45;19.44;88.20
18581;DHT22;9420;50.876;7.012;2023-07-29T07:30:11;19.31;87.55
18581;DHT22;9420;50.876;7.012;2023-07-29T07:32:38;19.43;88.21
18581;DHT22;9420;50.876;7.012;2023-07-29T07:35:05;19.43;87.78
18581;DHT22;9420;50.876;7.012;2023-07-29T07:37:31;19.53;88.67
18581;DHT22;9420;50.876;7.012;2023-07-29T07:39:59;19.56;89.76
18581;DHT22;9420;50.876;7.012;2023-07-29T07:42:26;19.79;86.29
18581;DHT22;9420;50.876;7.012;2023-07-29T07:44:52;19.61;86.06
18581;DHT22;9420;50.876;7.012;2023-07-29T07:47:19;19.68;86.45
18581;DHT22;9420;50.876;7.012;2023-07-29T07:49:46;19.75;86.46
18581;DHT22;9420;50.876;7.012;2023-07-29T07:52:14;19.84;84.56
18581;DHT22;9420;50.876;7.012;2023-07-29T07:54:41;19.99;83.06
18581;DHT22;9420;50.876;7.012;2023-07-29T07:57:09;19.94;84.81
18581;DHT22;9420;50.876;7.012;2023-07-29T07:59:35;20.05;85.74
18581;DHT22;9420;50.876;7.012;2023-07-29T08:02:02;20.12;84.22
18581;DHT22;9420;50.876;7.012;2023-07-29T08:04:29;20.02;84.66
18581;DHT22;9420;50.876;7.012;2023-07-29T08:06:55;20.11;84.57
18581;DHT22;9420;50.876;7.012;2023-07-29T08:09:22;20.19;84.72
18581;DHT22;9420;50.876;7.012;2023-07-29T08:11:49;20.16;85.20
18581;DHT22;9420;50.876;7.012;2023-07-29T08:14:17;20.26;83.92
18581;DHT22;9420;50.876;7.012;2023-07-29T08:16:44;20.25;82.89
18581;DHT22;9420;50.876;7.012;2023-07-29T08:19:10;20.18;82.71
18581;DHT22;9420;50.876;7.012;2023-07-29T08:21:37;20.25;80.65
18581;DHT22;9420;50.876;7.012;2023-07-29T08:24:03;20.85;80.38
18581;DHT22;9420;50.876;7.012;2023-07-29T08:26:32;21.50;80.69
18581;DHT22;9420;50.876;7.012;2023-07-29T08:28:59;22.08;76.27
18581;DHT22;9420;50.876;7.012;2023-07-29T08:31:27;21.55;76.86
18581;DHT22;9420;50.876;7.012;2023-07-29T08:33:54;21.24;78.48
18581;DHT22;9420;50.876;7.012;2023-07-29T08:36:21;21.14;78.35
18581;DHT22;9420;50.876;7.012;2023-07-29T08:38:47;20.87;78.60
18581;DHT22;9420;50.876;7.012;2023-07-29T08:41:16;20.81;80.09
18581;DHT22;9420;50.876;7.012;2023-07-29T08:43:48;20.81;77.69
18581;DHT22;9420;50.876;7.012;2023-07-29T08:46:16;20.40;79.17
18581;DHT22;9420;50.876;7.012;2023-07-29T08:48:44;20.62;78.16
18581;DHT22;9420;50.876;7.012;2023-07-29T08:51:12;20.59;78.90
18581;DHT22;9420;50.876;7.012;2023-07-29T08:53:39;20.29;80.15
18581;DHT22;9420;50.876;7.012;2023-07-29T08:56:07;20.29;78.98
18581;DHT22;9420;50.876;7.012;2023-07-29T08:58:34;20.21;81.87
18581;DHT22;9420;50.876;7.012;2023-07-29T09:01:01;20.23;80.14
18581;DHT22;9420;50.876;7.012;2023-07-29T09:03:28;20.33;79.65
18581;DHT22;9420;50.876;7.012;2023-07-29T09:05:57;20.18;81.55
18581;DHT22;9420;50.876;7.012;2023-07-29T09:08:25;20.26;79.93
18581;DHT22;9420;50.876;7.012;2023-07-29T09:10:52;20.16;81.68
18581;DHT22;9420;50.876;7.012;2023-07-29T09:13:21;20.32;79.69
18581;DHT22;9420;50.876;7.012;2023-07-29T09:15:48;20.53;78.34
18581;DHT22;9420;50.876;7.012;2023-07-29T09:18:16;20.50;78.10
18581;DHT22;9420;50.876;7.012;2023-07-29T09:20:43;20.64;78.26
18581;DHT22;9420;50.876;7.012;2023-07-29T09:23:11;20.57;78.54
18581;DHT22;9420;50.876;7.012;2023-07-29T09:25:38;20.54;78.40
18581;DHT22;9420;50.876;7.012;2023-07-29T09:28:10;20.57;77.59
18581;DHT22;9420;50.876;7.012;2023-07-29T09:30:37;20.77;78.06
18581;DHT22;9420;50.876;7.012;2023-07-29T09:33:04;20.59;76.81
18581;DHT22;9420;50.876;7.012;2023-07-29T09:35:33;20.47;78.33
18581;DHT22;9420;50.876;7.012;2023-07-29T09:38:00;20.63;76.23
18581;DHT22;9420;50.876;7.012;2023-07-29T09:40:34;20.74;76.87
18581;DHT22;9420;50.876;7.012;2023-07-29T09:43:00;20.74;76.73
18581;DHT22;9420;50.876;7.012;2023-07-29T09:45:27;20.80;75.74
18581;DHT22;9420;50.876;7.012;2023-07-29T09:47:54;20.90;75.31
18581;DHT22;9420;50.876;7.012;2023-07-29T09:50:23;21.02;74.38
18581;DHT22;9420;50.876;7.012;2023-07-29T09:52:51;20.97;74.92
18581;DHT22;9420;50.876;7.012;2023-07-29T09:55:18;21.21;72.07
18581;DHT22;9420;50.876;7.012;2023-07-29T09:57:46;21.50;71.58
18581;DHT22;9420;50.876;7.012;2023-07-29T10:00:13;21.58;71.60
18581;DHT22;9420;50.876;7.012;2023-07-29T10:02:41;21.85;71.88
18581;DHT22;9420;50.876;7.012;2023-07-29T10:05:08;21.60;70.94
18581;DHT22;9420;50.876;7.012;2023-07-29T10:07:36;21.14;72.59
18581;DHT22;9420;50.876;7.012;2023-07-29T10:10:04;21.38;70.81
18581;DHT22;9420;50.876;7.012;2023-07-29T10:12:32;21.48;71.73
18581;DHT22;9420;50.876;7.012;2023-07-29T10:15:01;21.41;73.77
18581;DHT22;9420;50.876;7.012;2023-07-29T10:17:29;21.87;70.32
18581;DHT22;9420;50.876;7.012;2023-07-29T10:19:56;21.93;70.77
18581;DHT22;9420;50.876;7.012;2023-07-29T10:22:25;21.66;70.41
18581;DHT22;9420;50.876;7.012;2023-07-29T10:24:54;21.62;72.24
18581;DHT22;9420;50.876;7.012;2023-07-29T10:27:24;21.70;73.23
18581;DHT22;9420;50.876;7.012;2023-07-29T10:29:53;21.79;72.27
18581;DHT22;9420;50.876;7.012;2023-07-29T10:32:25;21.75;69.36
18581;DHT22;9420;50.876;7.012;2023-07-29T10:34:52;21.34;73.75
18581;DHT22;9420;50.876;7.012;2023-07-29T10:37:19;20.71;76.06
18581;DHT22;9420;50.876;7.012;2023-07-29T10:39:54;20.29;80.65
18581;DHT22;9420;50.876;7.012;2023-07-29T10:42:21;20.01;78.65
18581;DHT22;9420;50.876;7.012;2023-07-29T10:44:50;19.82;81.10
18581;DHT22;9420;50.876;7.012;2023-07-29T10:47:20;19.78;79.79
18581;DHT22;9420;50.876;7.012;2023-07-29T10:49:50;19.82;81.45
18581;DHT22;9420;50.876;7.012;2023-07-29T10:52:28;19.84;81.70
18581;DHT22;9420;50.876;7.012;2023-07-29T10:54:56;19.77;85.24
18581;DHT22;9420;50.876;7.012;2023-07-29T10:57:30;19.57;83.07
18581;DHT22;9420;50.876;7.012;2023-07-29T10:59:58;19.43;84.81
18581;DHT22;9420;50.876;7.012;2023-07-29T11:02:30;19.41;84.62
18581;DHT22;9420;50.876;7.012;2023-07-29T11:04:58;19.56;85.78
18581;DHT22;9420;50.876;7.012;2023-07-29T11:07:26;19.81;86.51
18581;DHT22;9420;50.876;7.012;2023-07-29T11:09:55;19.99;85.98
18581;DHT22;9420;50.876;7.012;2023-07-29T11:12:40;19.73;85.96
18581;DHT22;9420;50.876;7.012;2023-07-29T11:15:16;19.61;84.89
18581;DHT22;9420;50.876;7.012;2023-07-29T11:17:44;19.57;86.22
18581;DHT22;9420;50.876;7.012;2023-07-29T11:20:13;19.54;85.88
18581;DHT22;9420;50.876;7.012;2023-07-29T11:22:40;19.91;87.42
18581;DHT22;9420;50.876;7.012;2023-07-29T11:25:09;20.05;86.20
18581;DHT22;9420;50.876;7.012;2023-07-29T11:27:35;20.37;86.82
18581;DHT22;9420;50.876;7.012;2023-07-29T11:30:03;20.46;84.46
18581;DHT22;9420;50.876;7.012;2023-07-29T11:32:31;20.37;87.98
18581;DHT22;9420;50.876;7.012;2023-07-29T11:35:01;20.05;85.51
18581;DHT22;9420;50.876;7.012;2023-07-29T11:37:29;21.32;82.74
18581;DHT22;9420;50.876;7.012;2023-07-29T11:39:56;21.59;82.67
18581;DHT22;9420;50.876;7.012;2023-07-29T11:42:24;22.69;82.07
18581;DHT22;9420;50.876;7.012;2023-07-29T11:44:51;23.27;78.87
18581;DHT22;9420;50.876;7.012;2023-07-29T11:47:17;23.86;77.66
18581;DHT22;9420;50.876;7.012;2023-07-29T11:49:44;23.68;74.74
18581;DHT22;9420;50.876;7.012;2023-07-29T11:52:10;23.61;73.67
18581;DHT22;9420;50.876;7.012;2023-07-29T11:54:39;25.47;71.87
18581;DHT22;9420;50.876;7.012;2023-07-29T11:57:06;26.13;66.35
18581;DHT22;9420;50.876;7.012;2023-07-29T11:59:34;26.62;67.97
18581;DHT22;9420;50.876;7.012;2023-07-29T12:02:01;26.35;69.84
18581;DHT22;9420;50.876;7.012;2023-07-29T12:04:28;26.99;65.80
18581;DHT22;9420;50.876;7.012;2023-07-29T12:06:56;26.40;65.19
18581;DHT22;9420;50.876;7.012;2023-07-29T12:09:23;29.10;61.10
18581;DHT22;9420;50.876;7.012;2023-07-29T12:11:51;28.50;58.56
18581;DHT22;9420;50.876;7.012;2023-07-29T12:14:18;27.65;60.17
18581;DHT22;9420;50.876;7.012;2023-07-29T12:16:47;26.99;60.02
18581;DHT22;9420;50.876;7.012;2023-07-29T12:19:14;26.37;60.92
18581;DHT22;9420;50.876;7.012;2023-07-29T12:21:42;28.97;56.56
18581;DHT22;9420;50.876;7.012;2023-07-29T12:24:09;29.10;58.09
18581;DHT22;9420;50.876;7.012;2023-07-29T12:26:36;29.80;58.41
18581;DHT22;9420;50.876;7.012;2023-07-29T12:29:12;31.35;50.51
18581;DHT22;9420;50.876;7.012;2023-07-29T12:31:39;28.44;53.73
18581;DHT22;9420;50.876;7.012;2023-07-29T12:34:06;27.94;60.44
18581;DHT22;9420;50.876;7.012;2023-07-29T12:36:42;27.94;56.88
18581;DHT22;9420;50.876;7.012;2023-07-29T12:39:16;28.97;56.97
18581;DHT22;9420;50.876;7.012;2023-07-29T12:41:42;30.52;49.79
18581;DHT22;9420;50.876;7.012;2023-07-29T12:44:13;29.96;54.03
18581;DHT22;9420;50.876;7.012;2023-07-29T12:46:40;29.53;55.83
18581;DHT22;9420;50.876;7.012;2023-07-29T12:49:07;29.55;49.65
18581;DHT22;9420;50.876;7.012;2023-07-29T12:51:33;28.63;55.37
18581;DHT22;9420;50.876;7.012;2023-07-29T12:54:01;27.69;53.44
18581;DHT22;9420;50.876;7.012;2023-07-29T12:56:28;26.80;57.99
18581;DHT22;9420;50.876;7.012;2023-07-29T12:58:56;26.08;63.09
18581;DHT22;9420;50.876;7.012;2023-07-29T13:01:24;25.35;61.82
18581;DHT22;9420;50.876;7.012;2023-07-29T13:03:51;24.43;66.09
18581;DHT22;9420;50.876;7.012;2023-07-29T13:06:17;24.10;66.52
18581;DHT22;9420;50.876;7.012;2023-07-29T13:08:44;23.86;68.15
18581;DHT22;9420;50.876;7.012;2023-07-29T13:11:11;23.84;68.05
18581;DHT22;9420;50.876;7.012;2023-07-29T13:13:38;23.55;69.88
18581;DHT22;9420;50.876;7.012;2023-07-29T13:16:04;23.53;66.31
18581;DHT22;9420;50.876;7.012;2023-07-29T13:18:32;23.16;67.73
18581;DHT22;9420;50.876;7.012;2023-07-29T13:20:59;23.06;69.02
18581;DHT22;9420;50.876;7.012;2023-07-29T13:23:26;22.76;69.50
18581;DHT22;9420;50.876;7.012;2023-07-29T13:25:53;22.73;72.64
18581;DHT22;9420;50.876;7.012;2023-07-29T13:28:19;22.54;69.62
18581;DHT22;9420;50.876;7.012;2023-07-29T13:30:46;22.54;74.63
18581;DHT22;9420;50.876;7.012;2023-07-29T13:33:13;22.22;78.75
18581;DHT22;9420;50.876;7.012;2023-07-29T13:35:41;22.13;78.84
18581;DHT22;9420;50.876;7.012;2023-07-29T13:38:07;21.75;76.18
18581;DHT22;9420;50.876;7.012;2023-07-29T13:40:34;21.35;83.67
18581;DHT22;9420;50.876;7.012;2023-07-29T13:43:00;21.25;76.53
18581;DHT22;9420;50.876;7.012;2023-07-29T13:45:27;21.11;75.60
18581;DHT22;9420;50.876;7.012;2023-07-29T13:47:54;21.12;83.12
18581;DHT22;9420;50.876;7.012;2023-07-29T13:50:20;20.97;78.71
18581;DHT22;9420;50.876;7.012;2023-07-29T13:52:48;20.74;80.12
18581;DHT22;9420;50.876;7.012;2023-07-29T13:55:15;20.76;84.57
18581;DHT22;9420;50.876;7.012;2023-07-29T13:57:42;20.59;86.34
18581;DHT22;9420;50.876;7.012;2023-07-29T14:00:09;20.62;89.50
18581;DHT22;9420;50.876;7.012;2023-07-29T14:02:35;20.50;85.31
18581;DHT22;9420;50.876;7.012;2023-07-29T14:05:02;20.54;87.34
18581;DHT22;9420;50.876;7.012;2023-07-29T14:07:29;20.47;85.22
18581;DHT22;9420;50.876;7.012;2023-07-29T14:09:57;20.54;87.36
18581;DHT22;9420;50.876;7.012;2023-07-29T14:12:23;20.29;83.84
18581;DHT22;9420;50.876;7.012;2023-07-29T14:14:50;20.29;85.83
18581;DHT22;9420;50.876;7.012;2023-07-29T14:17:17;20.42;88.38
18581;DHT22;9420;50.876;7.012;2023-07-29T14:19:43;20.56;84.97
18581;DHT22;9420;50.876;7.012;2023-07-29T14:22:11;20.56;85.54
18581;DHT22;9420;50.876;7.012;2023-07-29T14:24:37;20.49;86.85
18581;DHT22;9420;50.876;7.012;2023-07-29T14:27:06;20.57;87.15
18581;DHT22;9420;50.876;7.012;2023-07-29T14:29:32;20.57;87.59
18581;DHT22;9420;50.876;7.012;2023-07-29T14:31:59;20.81;88.09
18581;DHT22;9420;50.876;7.012;2023-07-29T14:34:26;20.66;85.75
18581;DHT22;9420;50.876;7.012;2023-07-29T14:36:52;20.66;85.70
18581;DHT22;9420;50.876;7.012;2023-07-29T14:39:19;20.85;86.78
18581;DHT22;9420;50.876;7.012;2023-07-29T14:41:45;21.24;88.04
18581;DHT22;9420;50.876;7.012;2023-07-29T14:44:13;21.38;84.84
18581;DHT22;9420;50.876;7.012;2023-07-29T14:46:40;21.41;86.21
18581;DHT22;9420;50.876;7.012;2023-07-29T14:49:07;21.45;86.36
18581;DHT22;9420;50.876;7.012;2023-07-29T14:51:34;21.34;84.56
18581;DHT22;9420;50.876;7.012;2023-07-29T14:54:00;21.50;85.34
18581;DHT22;9420;50.876;7.012;2023-07-29T14:56:27;21.48;85.59
18581;DHT22;9420;50.876;7.012;2023-07-29T14:58:54;21.43;86.02
18581;DHT22;9420;50.876;7.012;2023-07-29T15:01:22;21.31;87.91
18581;DHT22;9420;50.876;7.012;2023-07-29T15:03:49;21.32;86.15
18581;DHT22;9420;50.876;7.012;2023-07-29T15:06:15;21.59;85.16
18581;DHT22;9420;50.876;7.012;2023-07-29T15:08:42;22.10;83.57
18581;DHT22;9420;50.876;7.012;2023-07-29T15:11:09;22.58;80.35
18581;DHT22;9420;50.876;7.012;2023-07-29T15:13:36;25.55;70.85
18581;DHT22;9420;50.876;7.012;2023-07-29T15:16:03;26.37;68.94
18581;DHT22;9420;50.876;7.012;2023-07-29T15:18:31;26.37;66.40
18581;DHT22;9420;50.876;7.012;2023-07-29T15:20:59;25.86;67.46
18581;DHT22;9420;50.876;7.012;2023-07-29T15:23:27;24.83;71.38
18581;DHT22;9420;50.876;7.012;2023-07-29T15:25:54;26.18;67.66
18581;DHT22;9420;50.876;7.012;2023-07-29T15:28:20;26.37;64.63
18581;DHT22;9420;50.876;7.012;2023-07-29T15:30:47;24.41;70.55
18581;DHT22;9420;50.876;7.012;2023-07-29T15:33:13;23.88;71.77
18581;DHT22;9420;50.876;7.012;2023-07-29T15:35:41;24.61;68.61
18581;DHT22;9420;50.876;7.012;2023-07-29T15:38:08;23.85;72.75
18581;DHT22;9420;50.876;7.012;2023-07-29T15:40:35;25.94;66.43
18581;DHT22;9420;50.876;7.012;2023-07-29T15:43:01;25.11;70.59
18581;DHT22;9420;50.876;7.012;2023-07-29T15:45:28;26.59;63.99
18581;DHT22;9420;50.876;7.012;2023-07-29T15:47:54;27.22;63.62